Time;durP1;ratioP1;P1;durP2;ratioP2;P2;SDS_P1;SDS_P2;PMS_P1;PMS_P2;Temp;Humidity;BMP_temperature;BMP_pressure;BME280_temperature;BME280_humidity;BME280_pressure;Samples;Min_cycle;Max_cycle;Signal;HPM_P1;HPM_P2
2021/09/04 00:00:56;;;;;;;;;31.00;29.25;;;;;24.16;52.36;101094.22;5010488;28;45716;-65
2021/09/04 00:03:59;;;;;;;;;27.75;26.75;;;;;24.00;52.02;101073.66;5007865;28;45445;-65
2021/09/04 00:06:37;;;;;;;;;;;;;;;;;;;;;
2021/09/04 00:09:22;;;;;;;;;23.75;22.25;;;;;23.97;52.00;101073.94;5007893;28;71403;-65
2021/09/04 00:12:29;;;;;;;;;;;;;;;;;;;;;
2021/09/04 00:18:34;;;;;;;;;;;;;;;;;;;;;
2021/09/04 00:21:13;;;;;;;;;;;;;;;;;;;;;
2021/09/04 00:24:20;;;;;;;;;;;;;;;;;;;;;
2021/09/04 00:26:55;;;;;;;;;27.00;26.00;;;;;23.99;52.74;101085.56;5007527;28;72890;-65
2021/09/04 00:29:44;;;;;;;;;;;;;;;;;;;;;
2021/09/04 00:35:58;;;;;;;;;;;;;;;;;;;;;
2021/09/04 00:38:41;;;;;;;;;;;;;;;;;;;;;
2021/09/04 00:41:45;;;;;;;;;25.50;25.50;;;;;23.85;52.64;101064.03;5010341;28;75205;-65
2021/09/04 00:44:29;;;;;;;;;;;;;;;;;;;;;
2021/09/04 00:47:17;;;;;;;;;;;;;;;;;;;;;
2021/09/04 00:49:53;;;;;;;;;;;;;;;;;;;;;
2021/09/04 00:52:54;;;;;;;;;;;;;;;;;;;;;
2021/09/04 00:55:43;;;;;;;;;18.25;18.00;;;;;23.84;52.92;101078.69;5013347;28;71682;-65
2021/09/04 00:58:18;;;;;;;;;;;;;;;;;;;;;
2021/09/04 01:01:00;;;;;;;;;;;;;;;;;;;;;
2021/09/04 01:06:50;;;;;;;;;;;;;;;;;;;;;
2021/09/04 01:09:46;;;;;;;;;;;;;;;;;;;;;
2021/09/04 01:12:48;;;;;;;;;;;;;;;;;;;;;
2021/09/04 01:15:19;;;;;;;;;;;;;;;;;;;;;
2021/09/04 01:18:18;;;;;;;;;18.75;16.25;;;;;23.71;52.53;101081.53;5014423;28;73050;-65
2021/09/04 01:21:35;;;;;;;;;;;;;;;;;;;;;
2021/09/04 01:24:05;;;;;;;;;19.50;19.25;;;;;23.48;52.79;101051.56;4996749;28;45228;-65
2021/09/04 01:26:55;;;;;;;;;22.50;21.50;;;;;23.57;52.78;101070.88;4998878;28;47296;-65
2021/09/04 01:29:31;;;;;;;;;;;;;;;;;;;;;
2021/09/04 01:32:14;;;;;;;;;;;;;;;;;;;;;
2021/09/04 01:34:59;;;;;;;;;;;;;;;;;;;;;
2021/09/04 01:37:57;;;;;;;;;;;;;;;;;;;;;
2021/09/04 01:40:45;;;;;;;;;;;;;;;;;;;;;
2021/09/04 01:43:34;;;;;;;;;;;;;;;;;;;;;
2021/09/04 01:46:33;;;;;;;;;;;;;;;;;;;;;
2021/09/04 01:49:03;;;;;;;;;;;;;;;;;;;;;
2021/09/04 01:51:46;;;;;;;;;19.25;18.75;;;;;23.27;53.23;101039.72;4999115;28;73016;-65
2021/09/04 01:54:34;;;;;;;;;;;;;;;;;;;;;
2021/09/04 01:57:37;;;;;;;;;;;;;;;;;;;;;
2021/09/04 02:00:34;;;;;;;;;20.75;18.50;;;;;23.49;53.21;101076.97;4998845;28;75330;-65
2021/09/04 02:03:13;;;;;;;;;12.25;12.25;;;;;23.07;53.06;101011.38;4999353;28;45308;-65
2021/09/04 02:05:58;;;;;;;;;;;;;;;;;;;;;
2021/09/04 02:11:24;;;;;;;;;;;;;;;;;;;;;
2021/09/04 02:14:09;;;;;;;;;;;;;;;;;;;;;
2021/09/04 02:16:38;;;;;;;;;16.75;16.75;;;;;23.28;52.98;101046.91;5014991;28;67522;-65
2021/09/04 02:19:13;;;;;;;;;16.00;16.00;;;;;23.34;53.08;101048.25;5010119;28;45765;-65
2021/09/04 02:22:12;;;;;;;;;;;;;;;;;;;;;
2021/09/04 02:24:52;;;;;;;;;16.50;16.50;;;;;23.19;53.64;101034.91;4999843;28;71553;-65
2021/09/04 02:27:37;;;;;;;;;17.25;17.00;;;;;23.23;53.67;101040.97;5003479;28;45244;-65
2021/09/04 02:30:05;;;;;;;;;16.25;16.25;;;;;23.08;53.26;101004.94;5009007;28;45300;-65
2021/09/04 02:35:39;;;;;;;;;;;;;;;;;;;;;
2021/09/04 02:38:25;;;;;;;;;;;;;;;;;;;;;
2021/09/04 02:41:31;;;;;;;;;18.25;18.25;;;;;23.27;53.30;101061.50;5007470;28;71688;-65
2021/09/04 02:44:02;;;;;;;;;19.50;18.50;;;;;23.23;54.12;101052.72;5009073;28;45532;-65
2021/09/04 02:46:33;;;;;;;;;19.50;16.75;;;;;22.89;54.16;100994.66;5008913;28;45351;-65
2021/09/04 02:49:31;;;;;;;;;;;;;;;;;;;;;
2021/09/04 02:52:18;;;;;;;;;;;;;;;;;;;;;
2021/09/04 02:55:23;;;;;;;;;;;;;;;;;;;;;
2021/09/04 02:57:59;;;;;;;;;;;;;;;;;;;;;
2021/09/04 03:01:05;;;;;;;;;;;;;;;;;;;;;
2021/09/04 03:03:48;;;;;;;;;17.75;17.50;;;;;23.06;53.70;101032.28;5001220;28;72867;-65
2021/09/04 03:06:34;;;;;;;;;;;;;;;;;;;;;
2021/09/04 03:09:39;;;;;;;;;20.00;19.75;;;;;23.13;54.08;101047.13;5001508;28;72914;-65
2021/09/04 03:12:30;;;;;;;;;23.50;19.00;;;;;23.16;53.89;101064.25;5008818;28;45376;-65
2021/09/04 03:15:24;;;;;;;;;18.75;18.25;;;;;23.17;54.11;101055.06;5014775;28;45341;-65
2021/09/04 03:18:23;;;;;;;;;;;;;;;;;;;;;
2021/09/04 03:21:02;;;;;;;;;18.75;18.00;;;;;22.82;53.76;101005.19;4998696;28;45405;-65
2021/09/04 03:23:51;;;;;;;;;;;;;;;;;;;;;
2021/09/04 03:26:33;;;;;;;;;17.00;17.00;;;;;23.15;54.51;101052.47;5001300;28;72907;-65
2021/09/04 03:29:06;;;;;;;;;17.50;17.50;;;;;23.00;54.19;101038.19;5015937;28;47192;-65
2021/09/04 03:32:01;;;;;;;;;;;;;;;;;;;;;
2021/09/04 03:34:59;;;;;;;;;;;;;;;;;;;;;
2021/09/04 03:37:37;;;;;;;;;;;;;;;;;;;;;
2021/09/04 03:40:22;;;;;;;;;;;;;;;;;;;;;
2021/09/04 03:43:05;;;;;;;;;16.00;16.00;;;;;22.81;54.42;101011.59;5013410;28;72893;-65
2021/09/04 03:45:53;;;;;;;;;19.75;17.00;;;;;23.00;54.51;101045.50;5015159;28;45218;-65
2021/09/04 03:48:21;;;;;;;;;19.00;17.50;;;;;22.83;53.98;101025.09;5000429;28;45514;-65
2021/09/04 03:50:59;;;;;;;;;;;;;;;;;;;;;
2021/09/04 03:53:37;;;;;;;;;;;;;;;;;;;;;
2021/09/04 03:56:17;;;;;;;;;17.25;16.50;;;;;22.85;53.98;101026.69;5014512;28;67974;-65
2021/09/04 03:59:12;;;;;;;;;;;;;;;;;;;;;
2021/09/04 04:05:03;;;;;;;;;;;;;;;;;;;;;
2021/09/04 04:07:52;;;;;;;;;;;;;;;;;;;;;
2021/09/04 04:11:09;;;;;;;;;;;;;;;;;;;;;
2021/09/04 04:13:34;;;;;;;;;23.50;20.00;;;;;23.03;54.28;101045.25;5002051;28;45631;-65
2021/09/04 04:16:10;;;;;;;;;;;;;;;;;;;;;
2021/09/04 04:19:22;;;;;;;;;;;;;;;;;;;;;
2021/09/04 04:21:53;;;;;;;;;22.25;21.25;;;;;22.92;54.95;101027.94;5000417;28;72905;-65
2021/09/04 04:24:36;;;;;;;;;;;;;;;;;;;;;
2021/09/04 04:27:39;;;;;;;;;;;;;;;;;;;;;
2021/09/04 04:30:30;;;;;;;;;20.25;19.00;;;;;23.02;54.85;101041.69;5000176;28;67296;-66
2021/09/04 04:33:26;;;;;;;;;;;;;;;;;;;;;
2021/09/04 04:36:29;;;;;;;;;;;;;;;;;;;;;
2021/09/04 04:38:57;;;;;;;;;21.00;20.00;;;;;22.95;54.62;101021.38;4999672;28;72747;-65
2021/09/04 04:41:45;;;;;;;;;16.00;16.00;;;;;22.81;54.60;101002.56;5027254;28;45509;-65
2021/09/04 04:44:31;;;;;;;;;;;;;;;;;;;;;
2021/09/04 04:47:24;;;;;;;;;;;;;;;;;;;;;
2021/09/04 04:50:29;;;;;;;;;18.75;18.50;;;;;22.79;54.93;101005.41;4999964;28;72473;-66
2021/09/04 04:53:14;;;;;;;;;18.50;17.75;;;;;22.61;54.19;100988.69;4993567;28;45417;-65
2021/09/04 04:55:53;;;;;;;;;24.50;22.00;;;;;22.61;54.29;100990.56;5017150;28;45495;-65
2021/09/04 04:59:03;;;;;;;;;18.75;17.75;;;;;22.86;54.52;101033.88;4999310;28;48153;-65
2021/09/04 05:05:01;;;;;;;;;17.25;17.25;;;;;22.83;54.51;101023.22;5000073;28;45446;-65
2021/09/04 05:07:46;;;;;;;;;;;;;;;;;;;;;
2021/09/04 05:10:43;;;;;;;;;19.25;19.00;;;;;22.73;54.49;101022.22;5001976;28;76140;-65
2021/09/04 05:13:30;;;;;;;;;19.50;19.50;;;;;22.69;54.92;101009.84;5005629;28;45174;-65
2021/09/04 05:16:25;;;;;;;;;;;;;;;;;;;;;
2021/09/04 05:22:23;;;;;;;;;;;;;;;;;;;;;
2021/09/04 05:25:11;;;;;;;;;;;;;;;;;;;;;
2021/09/04 05:28:21;;;;;;;;;23.00;21.25;;;;;22.53;55.46;101000.16;4998325;28;70365;-65
2021/09/04 05:31:15;;;;;;;;;24.25;23.50;;;;;22.86;55.91;101047.47;5015057;28;45630;-65
2021/09/04 05:33:48;;;;;;;;;28.50;26.00;;;;;22.87;55.97;101057.38;4998222;28;47240;-65
2021/09/04 05:36:33;;;;;;;;;28.50;24.25;;;;;22.59;55.90;101009.72;5013990;28;45503;-65
2021/09/04 05:39:18;;;;;;;;;23.25;23.00;;;;;22.69;56.31;101023.47;5014905;28;45401;-65
2021/09/04 05:42:01;;;;;;;;;;;;;;;;;;;;;
2021/09/04 05:44:34;;;;;;;;;26.00;24.25;;;;;22.52;56.04;101017.50;5012247;28;73725;-65
2021/09/04 05:47:17;;;;;;;;;23.50;23.00;;;;;22.76;56.49;101057.34;4999946;28;45468;-65
2021/09/04 05:49:55;;;;;;;;;;;;;;;;;;;;;
2021/09/04 05:52:58;;;;;;;;;;;;;;;;;;;;;
2021/09/04 05:56:00;;;;;;;;;;;;;;;;;;;;;
2021/09/04 05:58:45;;;;;;;;;;;;;;;;;;;;;
2021/09/04 06:01:28;;;;;;;;;26.00;25.50;;;;;22.55;57.18;101039.03;4996355;28;69261;-65
2021/09/04 06:04:35;;;;;;;;;;;;;;;;;;;;;
2021/09/04 06:07:38;;;;;;;;;;;;;;;;;;;;;
2021/09/04 06:10:24;;;;;;;;;26.00;25.00;;;;;22.50;57.73;101048.50;5002840;28;72774;-65
2021/09/04 06:12:57;;;;;;;;;26.25;25.25;;;;;22.72;57.72;101091.22;5006684;28;45339;-65
2021/09/04 06:15:32;;;;;;;;;;;;;;;;;;;;;
2021/09/04 06:17:58;;;;;;;;;25.50;24.50;;;;;22.52;57.82;101057.41;5008259;28;73864;-64
2021/09/04 06:20:33;;;;;;;;;30.25;27.75;;;;;22.64;57.89;101082.81;5010046;28;45295;-65
2021/09/04 06:23:04;;;;;;;;;28.00;25.75;;;;;22.70;58.34;101104.09;5012938;28;45234;-65
2021/09/04 06:25:29;;;;;;;;;32.75;28.50;;;;;22.49;58.38;101061.25;4998574;28;45706;-64
2021/09/04 06:27:55;;;;;;;;;27.00;23.75;;;;;22.65;58.93;101081.81;4999343;28;45509;-64
2021/09/04 06:30:33;;;;;;;;;;;;;;;;;;;;;
2021/09/04 06:33:02;;;;;;;;;25.75;25.00;;;;;22.51;59.61;101056.56;5008433;28;68822;-65
2021/09/04 06:35:40;;;;;;;;;;;;;;;;;;;;;
2021/09/04 06:38:18;;;;;;;;;26.75;25.25;;;;;22.32;59.40;101039.91;4998262;28;74433;-65
2021/09/04 06:40:44;;;;;;;;;32.00;29.25;;;;;22.34;59.51;101049.72;5005266;28;45598;-64
2021/09/04 06:43:12;;;;;;;;;28.00;25.00;;;;;22.35;59.87;101056.00;5014637;28;45369;-65
2021/09/04 06:46:00;;;;;;;;;26.50;24.75;;;;;22.56;60.31;101086.13;4999568;28;45476;-65
2021/09/04 06:48:36;;;;;;;;;;;;;;;;;;;;;
2021/09/04 06:51:09;;;;;;;;;26.00;25.75;;;;;22.33;60.64;101058.84;4999260;28;73283;-65
2021/09/04 06:54:13;;;;;;;;;;;;;;;;;;;;;
2021/09/04 06:57:32;;;;;;;;;;;;;;;;;;;;;
2021/09/04 07:06:50;;;;;;;;;;;;;;;;;;;;;
2021/09/04 07:09:16;;;;;;;;;23.75;22.50;;;;;22.04;61.06;101035.72;5011036;28;73406;-64
2021/09/04 07:12:10;;;;;;;;;29.00;25.75;;;;;22.45;60.91;101103.25;5002472;28;46173;-66
2021/09/04 07:15:22;;;;;;;;;25.75;22.00;;;;;22.26;61.24;101070.28;5019118;28;45284;-66
2021/09/04 07:17:48;;;;;;;;;25.50;23.75;;;;;22.23;61.74;101065.09;5004759;28;45405;-65
2021/09/04 07:20:13;;;;;;;;;26.25;24.50;;;;;22.24;61.56;101059.53;5006202;28;45414;-65
2021/09/04 07:23:20;;;;;;;;;25.00;25.00;;;;;22.35;62.20;101088.63;5000957;28;46940;-66
2021/09/04 07:25:47;;;;;;;;;25.75;23.00;;;;;22.08;61.70;101037.22;5001504;28;45197;-66
2021/09/04 07:28:13;;;;;;;;;24.50;24.25;;;;;22.28;61.92;101076.47;5002302;28;45545;-66
2021/09/04 07:30:39;;;;;;;;;30.50;24.25;;;;;22.23;61.91;101065.94;5009314;28;45331;-66
2021/09/04 07:33:04;;;;;;;;;29.75;27.75;;;;;22.32;61.67;101076.16;5009284;28;45358;-66
2021/09/04 07:35:30;;;;;;;;;27.00;22.50;;;;;22.10;62.81;101047.00;5015420;28;45339;-66
2021/09/04 07:38:02;;;;;;;;;28.75;26.50;;;;;22.31;62.75;101077.13;5005987;28;45742;-67
2021/09/04 07:40:45;;;;;;;;;31.25;27.25;;;;;22.12;62.46;101045.03;5013616;28;45458;-67
2021/09/04 07:43:14;;;;;;;;;29.50;28.50;;;;;22.14;62.02;101051.22;5004621;28;46359;-66
2021/09/04 07:45:46;;;;;;;;;28.50;26.50;;;;;22.32;62.08;101078.00;5011787;28;45457;-66
2021/09/04 07:48:12;;;;;;;;;31.75;30.75;;;;;22.08;62.43;101040.78;5006458;28;45331;-66
2021/09/04 07:50:37;;;;;;;;;31.75;27.75;;;;;22.32;62.08;101078.88;5010731;28;45523;-66
2021/09/04 07:53:05;;;;;;;;;26.25;25.25;;;;;22.30;61.81;101077.25;5016899;28;46543;-66
2021/09/04 07:55:42;;;;;;;;;30.25;29.25;;;;;22.52;62.41;101111.81;5006069;28;45316;-66
2021/09/04 07:58:07;;;;;;;;;29.75;29.50;;;;;22.11;62.39;101043.28;5015100;28;45457;-66
2021/09/04 08:00:32;;;;;;;;;24.75;23.75;;;;;22.29;62.02;101072.81;5002054;28;45524;-66
2021/09/04 08:02:58;;;;;;;;;18.50;18.50;;;;;22.30;62.35;101075.41;5001565;28;45637;-65
2021/09/04 08:05:23;;;;;;;;;24.00;23.00;;;;;22.47;62.35;101103.16;5001806;28;45409;-66
2021/09/04 08:07:49;;;;;;;;;28.75;26.25;;;;;22.50;62.17;101103.81;5001837;28;45514;-66
2021/09/04 08:10:14;;;;;;;;;24.50;21.50;;;;;22.55;62.35;101120.63;5001636;28;45343;-66
2021/09/04 08:12:40;;;;;;;;;23.75;23.25;;;;;22.38;62.58;101086.53;5016844;28;47077;-66
2021/09/04 08:15:06;;;;;;;;;27.50;25.25;;;;;22.22;62.10;101050.63;5002850;28;45567;-66
2021/09/04 08:17:31;;;;;;;;;28.00;24.75;;;;;22.49;62.20;101090.31;5020740;28;45246;-65
2021/09/04 08:19:57;;;;;;;;;26.00;25.75;;;;;22.62;62.11;101112.88;5008543;28;45294;-65
2021/09/04 08:22:22;;;;;;;;;30.25;27.25;;;;;22.56;62.37;101099.72;5007620;28;46240;-65
2021/09/04 08:24:47;;;;;;;;;26.25;24.00;;;;;22.49;62.66;101079.44;5013241;28;45901;-66
2021/09/04 08:27:13;;;;;;;;;25.50;25.25;;;;;22.40;62.31;101061.94;5013496;28;45516;-66
2021/09/04 08:29:38;;;;;;;;;28.00;23.50;;;;;22.54;62.74;101093.53;5012795;28;45475;-66
2021/09/04 08:32:04;;;;;;;;;25.50;24.50;;;;;22.55;62.33;101073.50;5031227;28;47189;-66
2021/09/04 08:34:35;;;;;;;;;24.75;23.75;;;;;22.54;62.62;101083.53;5001305;28;45367;-65
2021/09/04 08:37:07;;;;;;;;;23.75;22.50;;;;;22.61;62.86;101083.06;4999865;28;45427;-65
2021/09/04 08:39:41;;;;;;;;;22.75;21.50;;;;;22.65;62.30;101095.41;5003727;28;45495;-66
2021/09/04 08:42:06;;;;;;;;;25.75;23.75;;;;;22.67;62.34;101104.31;5018137;28;47992;-66
2021/09/04 08:44:32;;;;;;;;;28.00;26.75;;;;;22.59;62.19;101085.91;5006192;28;46272;-65
2021/09/04 08:46:58;;;;;;;;;30.00;27.25;;;;;22.66;62.33;101097.16;5008313;28;45532;-65
2021/09/04 08:49:23;;;;;;;;;25.50;24.75;;;;;22.64;62.81;101097.28;5003966;28;45560;-65
2021/09/04 08:51:49;;;;;;;;;26.25;26.25;;;;;22.64;62.50;101082.81;5017451;28;45834;-65
2021/09/04 08:54:14;;;;;;;;;24.25;24.25;;;;;22.96;63.15;101139.31;5019745;28;45768;-65
2021/09/04 08:56:41;;;;;;;;;22.00;21.00;;;;;22.81;62.90;101111.44;5001079;28;45398;-65
2021/09/04 08:59:07;;;;;;;;;27.25;24.75;;;;;22.88;62.94;101118.97;5017990;28;45844;-65
2021/09/04 09:01:32;;;;;;;;;24.50;23.50;;;;;22.78;62.91;101098.91;4999792;28;45416;-65
2021/09/04 09:04:07;;;;;;;;;25.50;23.50;;;;;22.89;62.66;101115.28;4999244;28;45781;-65
2021/09/04 09:06:36;;;;;;;;;22.50;20.50;;;;;22.83;62.29;101096.69;4999913;28;45536;-65
2021/09/04 09:09:25;;;;;;;;;23.00;21.50;;;;;23.10;61.58;101150.88;4999511;28;45573;-65
2021/09/04 09:11:52;;;;;;;;;22.00;21.50;;;;;23.07;61.83;101136.63;5009657;28;46376;-65
2021/09/04 09:14:19;;;;;;;;;18.25;17.75;;;;;22.77;61.98;101099.91;5012873;28;45519;-65
2021/09/04 09:16:49;;;;;;;;;19.50;17.00;;;;;23.06;61.78;101140.31;5017307;28;46452;-65
2021/09/04 09:19:15;;;;;;;;;18.50;15.50;;;;;22.90;62.16;101117.03;5014997;28;45627;-65
2021/09/04 09:21:41;;;;;;;;;20.50;20.50;;;;;23.15;61.83;101153.22;5000332;28;45231;-66
2021/09/04 09:24:15;;;;;;;;;16.25;16.25;;;;;22.76;61.61;101081.84;5000178;28;45438;-66
2021/09/04 09:26:55;;;;;;;;;14.00;13.50;;;;;23.18;61.66;101152.97;5014599;28;45396;-65
2021/09/04 09:29:32;;;;;;;;;12.50;12.00;;;;;23.11;61.71;101138.13;5012711;28;45438;-65
2021/09/04 09:32:08;;;;;;;;;13.00;12.00;;;;;23.22;61.16;101149.03;5011157;28;45452;-65
2021/09/04 09:34:41;;;;;;;;;12.50;11.00;;;;;23.06;61.43;101123.97;5015269;28;45465;-65
2021/09/04 09:37:08;;;;;;;;;15.00;15.00;;;;;23.04;61.51;101120.50;5014733;28;45410;-65
2021/09/04 09:39:36;;;;;;;;;18.00;15.25;;;;;23.30;62.13;101159.31;5008198;28;45413;-65
2021/09/04 09:42:03;;;;;;;;;10.00;7.25;;;;;23.06;61.53;101108.53;5032467;28;47111;-65
2021/09/04 09:44:31;;;;;;;;;16.75;14.75;;;;;23.17;61.38;101118.59;5016765;28;46813;-65
2021/09/04 09:47:07;;;;;;;;;14.00;14.00;;;;;23.36;61.46;101149.78;5008866;28;45475;-65
2021/09/04 09:49:42;;;;;;;;;17.75;16.75;;;;;23.21;61.33;101120.06;5008981;28;45517;-65
2021/09/04 09:52:16;;;;;;;;;17.50;16.50;;;;;23.25;61.31;101121.53;5017267;28;45441;-65
2021/09/04 09:54:45;;;;;;;;;16.50;16.00;;;;;23.38;60.91;101136.91;5014798;28;45457;-65
2021/09/04 09:57:11;;;;;;;;;20.25;19.75;;;;;23.29;60.91;101120.31;5015051;28;45264;-65
2021/09/04 09:59:44;;;;;;;;;17.25;17.25;;;;;23.28;61.23;101113.13;5000025;28;45509;-66
2021/09/04 10:02:13;;;;;;;;;20.50;18.25;;;;;23.30;61.19;101113.00;5010618;28;47523;-66
2021/09/04 10:04:40;;;;;;;;;19.00;16.50;;;;;23.47;61.03;101134.31;5010405;28;45627;-65
2021/09/04 10:07:08;;;;;;;;;20.50;19.00;;;;;23.46;60.79;101131.72;5018029;28;45489;-65
2021/09/04 10:09:39;;;;;;;;;13.75;13.50;;;;;23.43;60.50;101116.47;5012069;28;45541;-65
2021/09/04 10:12:05;;;;;;;;;14.00;14.00;;;;;23.34;60.74;101091.81;5016433;28;45905;-66
2021/09/04 10:14:32;;;;;;;;;16.50;15.50;;;;;23.65;60.89;101133.78;5017252;28;45598;-65
2021/09/04 10:17:06;;;;;;;;;17.75;16.00;;;;;23.61;60.80;101126.88;5017737;28;45348;-65
2021/09/04 10:19:33;;;;;;;;;15.50;13.50;;;;;23.68;61.39;101136.28;5018223;28;45530;-65
2021/09/04 10:22:01;;;;;;;;;15.75;13.00;;;;;23.56;61.50;101105.44;5018000;28;47854;-65
2021/09/04 10:24:51;;;;;;;;;12.00;11.25;;;;;23.64;60.11;101110.28;5018297;28;45419;-65
2021/09/04 10:27:35;;;;;;;;;16.00;14.50;;;;;23.77;60.23;101130.09;5010653;28;45348;-66
2021/09/04 10:30:21;;;;;;;;;12.00;12.00;;;;;23.89;60.18;101139.16;5018783;28;45545;-65
2021/09/04 10:33:12;;;;;;;;;14.50;13.25;;;;;23.91;59.97;101137.16;5017796;28;47046;-65
2021/09/04 10:35:56;;;;;;;;;15.25;15.25;;;;;23.96;60.09;101139.50;5018104;28;45240;-65
2021/09/04 10:38:27;;;;;;;;;14.25;14.25;;;;;23.77;59.81;101101.94;5021952;28;45247;-65
2021/09/04 10:41:14;;;;;;;;;13.75;13.75;;;;;24.01;60.44;101138.13;5018938;28;45507;-65
2021/09/04 10:43:43;;;;;;;;;17.25;16.00;;;;;23.84;60.15;101101.34;5022327;28;46276;-66
2021/09/04 10:46:13;;;;;;;;;14.75;14.00;;;;;23.79;60.41;101083.59;5022777;28;45492;-66
2021/09/04 10:49:25;;;;;;;;;11.75;11.00;;;;;24.18;60.65;101133.97;5021764;28;45304;-66
2021/09/04 10:52:29;;;;;;;;;;;;;;;;;;;;;
2021/09/04 11:06:15;;;;;;;;;;;;;;;;;;;;;
2021/09/04 11:09:25;;;;;;;;;;;;;;;;;;;;;
2021/09/04 11:19:01;;;;;;;;;13.25;12.00;;;;;24.52;57.38;101122.06;4993871;28;45372;-66
2021/09/04 11:21:36;;;;;;;;;;;;;;;;;;;;;
2021/09/04 11:24:04;;;;;;;;;10.50;10.50;;;;;24.52;58.16;101112.00;5010298;28;71462;-66
2021/09/04 11:26:34;;;;;;;;;9.00;9.00;;;;;24.51;57.72;101096.66;5015527;28;45440;-66
2021/09/04 11:29:29;;;;;;;;;;;;;;;;;;;;;
2021/09/04 11:32:18;;;;;;;;;10.25;8.25;;;;;24.69;57.20;101107.00;5008781;28;74313;-67
2021/09/04 11:46:21;;;;;;;;;;;;;;;;;;;;;
2021/09/04 11:49:05;;;;;;;;;;;;;;;;;;;;;
2021/09/04 11:51:36;;;;;;;;;9.00;9.00;;;;;24.90;56.45;101096.09;5011921;28;67388;-66
2021/09/04 11:54:13;;;;;;;;;;;;;;;;;;;;;
2021/09/04 11:56:41;;;;;;;;;9.25;9.25;;;;;24.76;56.68;101068.13;5008702;28;75115;-65
2021/09/04 11:59:09;;;;;;;;;6.00;6.00;;;;;24.78;56.90;101068.84;5014661;28;45770;-66
2021/09/04 12:02:13;;;;;;;;;;;;;;;;;;;;;
2021/09/04 12:05:07;;;;;;;;;;;;;;;;;;;;;
2021/09/04 12:10:50;;;;;;;;;;;;;;;;;;;;;
2021/09/04 12:20:10;;;;;;;;;8.25;8.25;;;;;25.00;54.65;101050.59;5044165;28;45601;-66
2021/09/04 12:22:38;;;;;;;;;8.50;8.50;;;;;25.21;55.00;101083.31;5061501;28;45343;-66
2021/09/04 12:25:32;;;;;;;;;;;;;;;;;;;;;
2021/09/04 12:28:26;;;;;;;;;7.25;5.50;;;;;25.27;54.29;101068.28;5060182;28;71664;-66
2021/09/04 12:31:08;;;;;;;;;7.50;7.50;;;;;25.23;53.78;101058.59;5076800;28;47520;-66
2021/09/04 12:33:57;;;;;;;;;10.25;10.25;;;;;25.05;54.20;101028.34;5062091;28;45437;-66
2021/09/04 12:36:25;;;;;;;;;8.75;8.75;;;;;25.35;54.14;101070.34;5059886;28;45253;-66
2021/09/04 12:38:52;;;;;;;;;7.00;7.00;;;;;25.31;54.26;101065.13;5061367;28;45384;-65
2021/09/04 12:41:19;;;;;;;;;9.75;9.75;;;;;25.39;54.04;101078.09;5060579;28;46111;-66
2021/09/04 12:43:52;;;;;;;;;7.00;7.00;;;;;25.41;54.02;101067.91;5061123;28;45196;-66
2021/09/04 12:46:53;;;;;;;;;8.50;8.50;;;;;25.22;54.08;101037.75;5060981;28;45459;-65
2021/09/04 12:49:47;;;;;;;;;7.00;7.00;;;;;25.15;53.26;101013.69;5061001;28;45402;-66
2021/09/04 12:52:31;;;;;;;;;9.50;9.50;;;;;25.42;54.27;101053.22;5054141;28;46377;-67
2021/09/04 12:54:57;;;;;;;;;8.25;8.25;;;;;25.41;53.84;101053.38;5076590;28;45365;-66
2021/09/04 12:57:27;;;;;;;;;9.50;9.50;;;;;25.51;53.86;101067.94;5060973;28;45344;-66
2021/09/04 12:59:56;;;;;;;;;8.50;8.50;;;;;25.52;54.22;101066.94;5060539;28;45452;-66
2021/09/04 13:02:25;;;;;;;;;9.25;9.25;;;;;25.54;53.82;101070.38;5060584;28;45351;-66
2021/09/04 13:04:55;;;;;;;;;12.00;11.25;;;;;25.52;54.06;101056.00;5053413;28;45466;-66
2021/09/04 13:07:21;;;;;;;;;9.25;8.50;;;;;25.58;54.46;101065.53;5055355;28;45352;-66
2021/09/04 13:09:46;;;;;;;;;7.00;7.00;;;;;25.61;54.25;101065.22;5060522;28;45234;-66
2021/09/04 13:12:13;;;;;;;;;9.00;9.00;;;;;25.62;53.77;101062.34;5060638;28;45977;-66
2021/09/04 13:14:39;;;;;;;;;8.75;8.75;;;;;25.65;53.69;101058.47;5060122;28;45242;-66
2021/09/04 13:17:05;;;;;;;;;9.50;9.50;;;;;25.66;54.52;101052.00;5060314;28;45782;-66
2021/09/04 13:19:31;;;;;;;;;8.00;8.00;;;;;25.69;54.10;101058.06;5060681;28;45359;-66
2021/09/04 13:21:56;;;;;;;;;10.50;10.00;;;;;25.70;54.96;101048.84;5060330;28;46118;-66
2021/09/04 13:24:22;;;;;;;;;8.00;6.75;;;;;25.74;54.81;101049.41;5060740;28;45341;-66
2021/09/04 13:26:47;;;;;;;;;14.75;12.00;;;;;25.74;54.31;101049.41;5060446;28;45237;-66
2021/09/04 13:29:13;;;;;;;;;11.00;11.00;;;;;25.74;54.39;101046.69;5060440;28;45293;-66
2021/09/04 13:31:43;;;;;;;;;11.25;11.25;;;;;25.76;54.82;101046.53;5059619;28;45464;-66
2021/09/04 13:34:10;;;;;;;;;9.00;9.00;;;;;25.79;54.86;101051.75;5058924;28;45856;-66
2021/09/04 13:36:35;;;;;;;;;11.50;10.50;;;;;25.82;54.31;101051.47;5075974;28;45300;-66
2021/09/04 13:39:00;;;;;;;;;12.00;12.00;;;;;25.83;54.19;101047.72;5060373;28;45520;-67
2021/09/04 13:41:26;;;;;;;;;10.00;10.00;;;;;25.84;54.40;101055.78;5059662;28;45382;-67
2021/09/04 13:43:51;;;;;;;;;9.00;9.00;;;;;25.85;54.63;101060.25;5060193;28;45252;-67
2021/09/04 13:46:16;;;;;;;;;8.25;7.00;;;;;25.78;54.80;101037.22;5060398;28;45556;-67
2021/09/04 13:48:42;;;;;;;;;11.50;11.00;;;;;25.85;54.77;101043.84;5058095;28;45676;-67
2021/09/04 13:51:07;;;;;;;;;9.50;9.25;;;;;25.84;54.39;101042.13;5059810;28;46125;-68
2021/09/04 13:53:32;;;;;;;;;10.50;10.50;;;;;25.85;53.81;101043.84;5060173;28;45332;-67
2021/09/04 13:55:58;;;;;;;;;11.00;11.00;;;;;25.86;54.01;101034.63;5059795;28;45310;-67
2021/09/04 13:58:24;;;;;;;;;11.75;11.00;;;;;25.84;54.12;101027.56;5059606;28;45247;-67
2021/09/04 14:00:49;;;;;;;;;11.00;11.00;;;;;25.90;54.11;101032.47;5059323;28;45338;-67
2021/09/04 14:03:14;;;;;;;;;10.00;10.00;;;;;25.93;53.48;101036.78;5059860;28;45377;-67
2021/09/04 14:05:40;;;;;;;;;10.25;9.50;;;;;25.93;53.68;101026.72;5054196;28;45358;-67
2021/09/04 14:08:05;;;;;;;;;11.25;11.25;;;;;25.92;52.98;101029.59;5059549;28;45293;-69
2021/09/04 14:10:30;;;;;;;;;10.75;10.75;;;;;25.92;53.04;101011.31;5055809;28;46984;-67
2021/09/04 14:12:56;;;;;;;;;11.00;10.50;;;;;25.99;53.82;101020.69;5059058;28;45182;-67
2021/09/04 14:15:21;;;;;;;;;12.00;10.00;;;;;26.03;54.42;101019.41;5056590;28;45252;-67
2021/09/04 14:17:46;;;;;;;;;12.00;12.00;;;;;26.02;55.11;101022.28;5059181;28;45464;-68
2021/09/04 14:20:12;;;;;;;;;13.00;13.00;;;;;26.02;55.07;101016.81;5055642;28;48279;-66
2021/09/04 14:22:37;;;;;;;;;13.00;11.75;;;;;26.05;54.74;101022.00;5059733;28;45351;-66
2021/09/04 14:25:04;;;;;;;;;11.00;11.00;;;;;26.07;54.63;101023.56;5059824;28;45169;-67
2021/09/04 14:27:29;;;;;;;;;11.75;10.50;;;;;26.09;54.97;101020.69;5059591;28;45351;-66
2021/09/04 14:29:56;;;;;;;;;8.75;8.75;;;;;26.11;54.48;101024.19;5059012;28;46316;-65
2021/09/04 14:32:23;;;;;;;;;14.00;14.00;;;;;26.09;54.89;101017.97;5057841;28;45385;-65
2021/09/04 14:34:48;;;;;;;;;14.00;12.25;;;;;26.14;55.18;101023.00;5059610;28;45379;-65
2021/09/04 14:37:13;;;;;;;;;11.75;11.75;;;;;26.12;54.47;101009.47;5058865;28;45421;-65
2021/09/04 14:39:39;;;;;;;;;9.00;9.00;;;;;26.16;54.58;101021.88;5059173;28;45292;-65
2021/09/04 14:42:05;;;;;;;;;10.00;10.00;;;;;26.14;54.69;101020.28;5058817;28;45155;-65
2021/09/04 14:44:30;;;;;;;;;11.75;10.25;;;;;26.17;55.46;101028.19;5063244;28;45314;-65
2021/09/04 14:46:56;;;;;;;;;9.50;9.00;;;;;26.17;54.85;101017.25;5059310;28;45231;-65
2021/09/04 14:49:21;;;;;;;;;9.75;9.25;;;;;26.11;55.57;101010.50;5059165;28;45354;-65
2021/09/04 14:51:47;;;;;;;;;10.50;10.25;;;;;26.14;55.28;101014.81;5071467;28;45267;-65
2021/09/04 14:54:12;;;;;;;;;10.00;10.00;;;;;26.12;54.90;101014.94;5053148;28;45302;-65
2021/09/04 14:56:38;;;;;;;;;8.25;8.25;;;;;26.12;55.26;101009.47;5059269;28;45382;-65
2021/09/04 14:59:03;;;;;;;;;9.00;8.75;;;;;26.04;55.59;101003.84;5057532;28;48110;-65
2021/09/04 15:01:29;;;;;;;;;8.50;8.50;;;;;25.84;55.09;100970.16;5057947;28;45260;-65
2021/09/04 15:03:54;;;;;;;;;9.00;8.25;;;;;26.07;55.55;101004.44;5058959;28;45431;-66
2021/09/04 15:06:19;;;;;;;;;8.25;8.00;;;;;25.80;55.54;100965.97;5069811;27;45489;-67
2021/09/04 15:08:46;;;;;;;;;11.50;11.50;;;;;26.06;55.61;101004.56;5058326;28;45407;-66
2021/09/04 15:11:12;;;;;;;;;9.00;9.00;;;;;26.02;55.75;100994.94;5058828;28;45315;-66
2021/09/04 15:13:38;;;;;;;;;8.00;8.00;;;;;25.85;55.71;100964.53;5057072;28;46666;-66
2021/09/04 15:16:55;;;;;;;;;;;;;;;;;;;;;
2021/09/04 15:19:12;;;;;;;;;9.25;8.25;;;;;25.90;55.60;100975.03;5054260;28;46290;-66
2021/09/04 15:21:41;;;;;;;;;11.75;11.50;;;;;25.86;55.73;100973.59;5057321;28;45459;-66